sensor_id;sensor_type;location;lat;lon;timestamp;P1;durP1;ratioP1;P2;durP2;ratioP2
9918;SDS011;4998;51.024;13.828;2022-11-28T00:01:35;10.40;;;8.20;;
9918;SDS011;4998;51.024;13.828;2022-11-28T00:04:04;11.93;;;8.30;;
9918;SDS011;4998;51.024;13.828;2022-11-28T00:06:31;11.60;;;8.03;;
9918;SDS011;4998;51.024;13.828;2022-11-28T00:09:02;10.70;;;8.00;;
9918;SDS011;4998;51.024;13.828;2022-11-28T00:11:29;10.50;;;8.50;;
9918;SDS011;4998;51.024;13.828;2022-11-28T00:13:56;11.37;;;8.77;;
9918;SDS011;4998;51.024;13.828;2022-11-28T00:16:23;12.17;;;8.27;;
9918;SDS011;4998;51.024;13.828;2022-11-28T00:18:52;10.07;;;8.23;;
9918;SDS011;4998;51.024;13.828;2022-11-28T00:21:20;14.80;;;8.63;;
9918;SDS011;4998;51.024;13.828;2022-11-28T00:23:48;11.20;;;9.13;;
9918;SDS011;4998;51.024;13.828;2022-11-28T00:26:16;13.83;;;9.00;;
9918;SDS011;4998;51.024;13.828;2022-11-28T00:28:45;12.63;;;7.80;;
9918;SDS011;4998;51.024;13.828;2022-11-28T00:31:13;13.60;;;8.63;;
9918;SDS011;4998;51.024;13.828;2022-11-28T00:33:41;12.80;;;8.33;;
9918;SDS011;4998;51.024;13.828;2022-11-28T00:36:10;13.33;;;8.23;;
9918;SDS011;4998;51.024;13.828;2022-11-28T00:38:37;15.40;;;8.53;;
9918;SDS011;4998;51.024;13.828;2022-11-28T00:41:06;14.50;;;8.50;;
9918;SDS011;4998;51.024;13.828;2022-11-28T00:43:34;10.90;;;8.00;;
9918;SDS011;4998;51.024;13.828;2022-11-28T00:46:01;13.30;;;9.33;;
9918;SDS011;4998;51.024;13.828;2022-11-28T00:48:28;13.93;;;8.83;;
9918;SDS011;4998;51.024;13.828;2022-11-28T00:51:03;11.83;;;7.90;;
9918;SDS011;4998;51.024;13.828;2022-11-28T00:53:33;12.87;;;8.07;;
9918;SDS011;4998;51.024;13.828;2022-11-28T00:56:02;10.70;;;7.60;;
9918;SDS011;4998;51.024;13.828;2022-11-28T00:58:30;12.27;;;8.47;;
9918;SDS011;4998;51.024;13.828;2022-11-28T01:00:57;13.40;;;8.43;;
9918;SDS011;4998;51.024;13.828;2022-11-28T01:03:24;12.20;;;8.10;;
9918;SDS011;4998;51.024;13.828;2022-11-28T01:05:51;11.03;;;7.47;;
9918;SDS011;4998;51.024;13.828;2022-11-28T01:08:18;12.57;;;8.20;;
9918;SDS011;4998;51.024;13.828;2022-11-28T01:10:47;10.20;;;7.63;;
9918;SDS011;4998;51.024;13.828;2022-11-28T01:13:14;11.10;;;7.20;;
9918;SDS011;4998;51.024;13.828;2022-11-28T01:15:41;8.83;;;7.10;;
9918;SDS011;4998;51.024;13.828;2022-11-28T01:18:08;10.33;;;7.43;;
9918;SDS011;4998;51.024;13.828;2022-11-28T01:20:35;12.03;;;8.77;;
9918;SDS011;4998;51.024;13.828;2022-11-28T01:23:02;11.57;;;8.30;;
9918;SDS011;4998;51.024;13.828;2022-11-28T01:25:30;12.87;;;8.07;;
9918;SDS011;4998;51.024;13.828;2022-11-28T01:27:59;10.73;;;7.40;;
9918;SDS011;4998;51.024;13.828;2022-11-28T01:30:26;15.47;;;8.47;;
9918;SDS011;4998;51.024;13.828;2022-11-28T01:32:53;9.20;;;7.63;;
9918;SDS011;4998;51.024;13.828;2022-11-28T01:35:20;10.17;;;7.30;;
9918;SDS011;4998;51.024;13.828;2022-11-28T01:37:47;12.50;;;8.53;;
9918;SDS011;4998;51.024;13.828;2022-11-28T01:40:14;11.80;;;8.87;;
9918;SDS011;4998;51.024;13.828;2022-11-28T01:42:41;11.87;;;8.10;;
9918;SDS011;4998;51.024;13.828;2022-11-28T01:45:13;11.00;;;8.53;;
9918;SDS011;4998;51.024;13.828;2022-11-28T01:47:43;16.00;;;9.10;;
9918;SDS011;4998;51.024;13.828;2022-11-28T01:50:12;12.43;;;8.83;;
9918;SDS011;4998;51.024;13.828;2022-11-28T01:52:39;12.97;;;8.37;;
9918;SDS011;4998;51.024;13.828;2022-11-28T01:55:09;11.40;;;8.60;;
9918;SDS011;4998;51.024;13.828;2022-11-28T01:57:38;11.63;;;8.43;;
9918;SDS011;4998;51.024;13.828;2022-11-28T02:00:06;13.67;;;8.90;;
9918;SDS011;4998;51.024;13.828;2022-11-28T02:02:38;14.10;;;9.33;;
9918;SDS011;4998;51.024;13.828;2022-11-28T02:05:07;13.93;;;9.43;;
9918;SDS011;4998;51.024;13.828;2022-11-28T02:07:34;13.20;;;8.93;;
9918;SDS011;4998;51.024;13.828;2022-11-28T02:10:04;12.37;;;9.20;;
9918;SDS011;4998;51.024;13.828;2022-11-28T02:12:35;10.93;;;7.83;;
9918;SDS011;4998;51.024;13.828;2022-11-28T02:15:24;11.77;;;8.33;;
9918;SDS011;4998;51.024;13.828;2022-11-28T02:18:11;12.53;;;8.50;;
9918;SDS011;4998;51.024;13.828;2022-11-28T02:20:55;13.83;;;8.77;;
9918;SDS011;4998;51.024;13.828;2022-11-28T02:23:47;12.50;;;8.27;;
9918;SDS011;4998;51.024;13.828;2022-11-28T02:26:40;12.10;;;8.33;;
9918;SDS011;4998;51.024;13.828;2022-11-28T02:29:34;13.90;;;8.97;;
9918;SDS011;4998;51.024;13.828;2022-11-28T02:32:29;13.10;;;8.57;;
9918;SDS011;4998;51.024;13.828;2022-11-28T02:35:05;12.23;;;8.23;;
9918;SDS011;4998;51.024;13.828;2022-11-28T02:37:38;11.03;;;8.10;;
9918;SDS011;4998;51.024;13.828;2022-11-28T02:40:12;13.43;;;8.97;;
9918;SDS011;4998;51.024;13.828;2022-11-28T02:42:50;11.60;;;8.70;;
9918;SDS011;4998;51.024;13.828;2022-11-28T02:45:27;13.20;;;8.57;;
9918;SDS011;4998;51.024;13.828;2022-11-28T02:48:00;13.10;;;8.90;;
9918;SDS011;4998;51.024;13.828;2022-11-28T02:50:30;16.50;;;8.00;;
9918;SDS011;4998;51.024;13.828;2022-11-28T02:53:04;10.13;;;8.10;;
9918;SDS011;4998;51.024;13.828;2022-11-28T02:55:36;11.37;;;8.50;;
9918;SDS011;4998;51.024;13.828;2022-11-28T02:58:05;13.40;;;8.67;;
9918;SDS011;4998;51.024;13.828;2022-11-28T03:00:33;12.20;;;8.50;;
9918;SDS011;4998;51.024;13.828;2022-11-28T03:03:12;10.67;;;8.13;;
9918;SDS011;4998;51.024;13.828;2022-11-28T03:06:01;10.40;;;8.00;;
9918;SDS011;4998;51.024;13.828;2022-11-28T03:08:36;12.73;;;8.43;;
9918;SDS011;4998;51.024;13.828;2022-11-28T03:11:18;12.43;;;8.10;;
9918;SDS011;4998;51.024;13.828;2022-11-28T03:13:52;12.23;;;8.53;;
9918;SDS011;4998;51.024;13.828;2022-11-28T03:16:27;12.97;;;8.27;;
9918;SDS011;4998;51.024;13.828;2022-11-28T03:19:00;10.30;;;8.50;;
9918;SDS011;4998;51.024;13.828;2022-11-28T03:21:36;10.27;;;8.33;;
9918;SDS011;4998;51.024;13.828;2022-11-28T03:24:09;10.30;;;7.63;;
9918;SDS011;4998;51.024;13.828;2022-11-28T03:26:43;10.80;;;7.70;;
9918;SDS011;4998;51.024;13.828;2022-11-28T03:29:15;11.33;;;8.20;;
9918;SDS011;4998;51.024;13.828;2022-11-28T03:31:48;12.87;;;8.40;;
9918;SDS011;4998;51.024;13.828;2022-11-28T03:34:22;11.23;;;8.07;;
9918;SDS011;4998;51.024;13.828;2022-11-28T03:36:55;10.20;;;8.20;;
9918;SDS011;4998;51.024;13.828;2022-11-28T03:39:27;11.10;;;7.50;;
9918;SDS011;4998;51.024;13.828;2022-11-28T03:41:58;12.63;;;7.50;;
9918;SDS011;4998;51.024;13.828;2022-11-28T03:44:30;12.80;;;7.90;;
9918;SDS011;4998;51.024;13.828;2022-11-28T03:47:03;8.97;;;7.30;;
9918;SDS011;4998;51.024;13.828;2022-11-28T03:49:33;10.57;;;7.47;;
9918;SDS011;4998;51.024;13.828;2022-11-28T03:52:04;10.90;;;8.20;;
9918;SDS011;4998;51.024;13.828;2022-11-28T03:54:36;15.23;;;8.40;;
9918;SDS011;4998;51.024;13.828;2022-11-28T03:57:09;12.97;;;8.37;;
9918;SDS011;4998;51.024;13.828;2022-11-28T03:59:40;14.17;;;8.67;;
9918;SDS011;4998;51.024;13.828;2022-11-28T04:02:13;12.50;;;8.27;;
9918;SDS011;4998;51.024;13.828;2022-11-28T04:04:49;10.77;;;7.17;;
9918;SDS011;4998;51.024;13.828;2022-11-28T04:07:22;10.97;;;8.50;;
9918;SDS011;4998;51.024;13.828;2022-11-28T04:09:56;15.50;;;8.60;;
9918;SDS011;4998;51.024;13.828;2022-11-28T04:12:30;11.13;;;8.10;;
9918;SDS011;4998;51.024;13.828;2022-11-28T04:15:05;12.87;;;8.47;;
9918;SDS011;4998;51.024;13.828;2022-11-28T04:17:38;11.60;;;7.83;;
9918;SDS011;4998;51.024;13.828;2022-11-28T04:20:18;10.70;;;7.70;;
9918;SDS011;4998;51.024;13.828;2022-11-28T04:22:52;10.77;;;7.70;;
9918;SDS011;4998;51.024;13.828;2022-11-28T04:25:25;9.70;;;7.53;;
9918;SDS011;4998;51.024;13.828;2022-11-28T04:27:56;10.07;;;7.70;;
9918;SDS011;4998;51.024;13.828;2022-11-28T04:30:28;10.20;;;7.70;;
9918;SDS011;4998;51.024;13.828;2022-11-28T04:32:56;9.77;;;8.07;;
9918;SDS011;4998;51.024;13.828;2022-11-28T04:35:30;11.77;;;7.90;;
9918;SDS011;4998;51.024;13.828;2022-11-28T04:37:59;11.50;;;8.13;;
9918;SDS011;4998;51.024;13.828;2022-11-28T04:40:28;8.60;;;7.30;;
9918;SDS011;4998;51.024;13.828;2022-11-28T04:42:57;12.60;;;7.60;;
9918;SDS011;4998;51.024;13.828;2022-11-28T04:45:29;9.43;;;7.27;;
9918;SDS011;4998;51.024;13.828;2022-11-28T04:47:59;11.10;;;7.27;;
9918;SDS011;4998;51.024;13.828;2022-11-28T04:50:29;11.70;;;7.50;;
9918;SDS011;4998;51.024;13.828;2022-11-28T04:53:03;10.10;;;7.73;;
9918;SDS011;4998;51.024;13.828;2022-11-28T04:55:34;10.70;;;7.70;;
9918;SDS011;4998;51.024;13.828;2022-11-28T04:58:07;11.50;;;8.30;;
9918;SDS011;4998;51.024;13.828;2022-11-28T05:00:38;9.60;;;7.63;;
9918;SDS011;4998;51.024;13.828;2022-11-28T05:03:05;9.40;;;7.80;;
9918;SDS011;4998;51.024;13.828;2022-11-28T05:05:41;9.60;;;7.30;;
9918;SDS011;4998;51.024;13.828;2022-11-28T05:08:10;10.70;;;7.00;;
9918;SDS011;4998;51.024;13.828;2022-11-28T05:10:37;10.07;;;8.03;;
9918;SDS011;4998;51.024;13.828;2022-11-28T05:13:05;9.67;;;7.90;;
9918;SDS011;4998;51.024;13.828;2022-11-28T05:15:32;11.00;;;7.63;;
9918;SDS011;4998;51.024;13.828;2022-11-28T05:17:59;10.03;;;7.93;;
9918;SDS011;4998;51.024;13.828;2022-11-28T05:20:26;9.27;;;7.47;;
9918;SDS011;4998;51.024;13.828;2022-11-28T05:22:55;11.00;;;8.83;;
9918;SDS011;4998;51.024;13.828;2022-11-28T05:25:22;10.30;;;7.87;;
9918;SDS011;4998;51.024;13.828;2022-11-28T05:27:50;10.70;;;7.50;;
9918;SDS011;4998;51.024;13.828;2022-11-28T05:30:17;9.60;;;7.47;;
9918;SDS011;4998;51.024;13.828;2022-11-28T05:32:44;9.40;;;7.37;;
9918;SDS011;4998;51.024;13.828;2022-11-28T05:35:11;12.60;;;8.33;;
9918;SDS011;4998;51.024;13.828;2022-11-28T05:37:38;11.93;;;7.83;;
9918;SDS011;4998;51.024;13.828;2022-11-28T05:40:07;10.03;;;7.57;;
9918;SDS011;4998;51.024;13.828;2022-11-28T05:42:35;9.43;;;7.40;;
9918;SDS011;4998;51.024;13.828;2022-11-28T05:45:02;12.00;;;7.67;;
9918;SDS011;4998;51.024;13.828;2022-11-28T05:47:30;12.20;;;7.60;;
9918;SDS011;4998;51.024;13.828;2022-11-28T05:49:58;10.73;;;8.00;;
9918;SDS011;4998;51.024;13.828;2022-11-28T05:52:26;12.40;;;7.70;;
9918;SDS011;4998;51.024;13.828;2022-11-28T05:54:56;9.80;;;8.07;;
9918;SDS011;4998;51.024;13.828;2022-11-28T05:57:25;9.77;;;7.20;;
9918;SDS011;4998;51.024;13.828;2022-11-28T05:59:54;8.63;;;6.60;;
9918;SDS011;4998;51.024;13.828;2022-11-28T06:02:21;8.77;;;7.47;;
9918;SDS011;4998;51.024;13.828;2022-11-28T06:04:49;12.00;;;8.13;;
9918;SDS011;4998;51.024;13.828;2022-11-28T06:07:16;9.30;;;7.17;;
9918;SDS011;4998;51.024;13.828;2022-11-28T06:09:43;9.47;;;6.90;;
9918;SDS011;4998;51.024;13.828;2022-11-28T06:12:11;10.63;;;7.77;;
9918;SDS011;4998;51.024;13.828;2022-11-28T06:14:39;10.73;;;7.00;;
9918;SDS011;4998;51.024;13.828;2022-11-28T06:17:06;9.73;;;6.50;;
9918;SDS011;4998;51.024;13.828;2022-11-28T06:19:33;10.60;;;7.97;;
9918;SDS011;4998;51.024;13.828;2022-11-28T06:22:00;8.50;;;7.17;;
9918;SDS011;4998;51.024;13.828;2022-11-28T06:24:27;10.30;;;7.93;;
9918;SDS011;4998;51.024;13.828;2022-11-28T06:26:54;8.73;;;7.37;;
9918;SDS011;4998;51.024;13.828;2022-11-28T06:29:21;10.67;;;7.47;;
9918;SDS011;4998;51.024;13.828;2022-11-28T06:31:50;10.13;;;7.70;;
9918;SDS011;4998;51.024;13.828;2022-11-28T06:34:17;11.87;;;8.07;;
9918;SDS011;4998;51.024;13.828;2022-11-28T06:36:44;8.73;;;7.13;;
9918;SDS011;4998;51.024;13.828;2022-11-28T06:39:12;9.67;;;7.90;;
9918;SDS011;4998;51.024;13.828;2022-11-28T06:41:40;7.60;;;6.73;;
9918;SDS011;4998;51.024;13.828;2022-11-28T06:44:07;7.70;;;6.37;;
9918;SDS011;4998;51.024;13.828;2022-11-28T06:46:38;10.27;;;6.80;;
9918;SDS011;4998;51.024;13.828;2022-11-28T06:49:07;10.63;;;7.63;;
9918;SDS011;4998;51.024;13.828;2022-11-28T06:51:36;9.23;;;7.20;;
9918;SDS011;4998;51.024;13.828;2022-11-28T06:54:03;11.40;;;7.67;;
9918;SDS011;4998;51.024;13.828;2022-11-28T06:56:31;10.40;;;7.40;;
9918;SDS011;4998;51.024;13.828;2022-11-28T06:58:59;8.47;;;6.80;;
9918;SDS011;4998;51.024;13.828;2022-11-28T07:01:28;9.17;;;6.90;;
9918;SDS011;4998;51.024;13.828;2022-11-28T07:03:56;7.97;;;6.57;;
9918;SDS011;4998;51.024;13.828;2022-11-28T07:06:25;7.77;;;6.60;;
9918;SDS011;4998;51.024;13.828;2022-11-28T07:08:54;8.93;;;7.07;;
9918;SDS011;4998;51.024;13.828;2022-11-28T07:11:22;9.03;;;7.30;;
9918;SDS011;4998;51.024;13.828;2022-11-28T07:13:50;8.23;;;6.40;;
9918;SDS011;4998;51.024;13.828;2022-11-28T07:16:18;7.30;;;6.17;;
9918;SDS011;4998;51.024;13.828;2022-11-28T07:18:47;9.20;;;6.97;;
9918;SDS011;4998;51.024;13.828;2022-11-28T07:21:14;9.47;;;6.70;;
9918;SDS011;4998;51.024;13.828;2022-11-28T07:23:44;9.50;;;7.20;;
9918;SDS011;4998;51.024;13.828;2022-11-28T07:26:13;8.20;;;6.83;;
9918;SDS011;4998;51.024;13.828;2022-11-28T07:28:41;8.37;;;6.30;;
9918;SDS011;4998;51.024;13.828;2022-11-28T07:31:10;8.30;;;6.70;;
9918;SDS011;4998;51.024;13.828;2022-11-28T07:33:38;10.10;;;7.40;;
9918;SDS011;4998;51.024;13.828;2022-11-28T07:36:08;9.30;;;6.53;;
9918;SDS011;4998;51.024;13.828;2022-11-28T07:38:37;9.83;;;6.97;;
9918;SDS011;4998;51.024;13.828;2022-11-28T07:41:06;9.73;;;6.80;;
9918;SDS011;4998;51.024;13.828;2022-11-28T07:43:35;8.83;;;6.70;;
9918;SDS011;4998;51.024;13.828;2022-11-28T07:46:03;8.33;;;6.60;;
9918;SDS011;4998;51.024;13.828;2022-11-28T07:48:30;9.40;;;7.57;;
9918;SDS011;4998;51.024;13.828;2022-11-28T07:50:58;8.07;;;6.40;;
9918;SDS011;4998;51.024;13.828;2022-11-28T07:53:25;10.80;;;6.53;;
9918;SDS011;4998;51.024;13.828;2022-11-28T07:55:52;9.40;;;7.43;;
9918;SDS011;4998;51.024;13.828;2022-11-28T07:58:21;6.83;;;6.10;;
9918;SDS011;4998;51.024;13.828;2022-11-28T08:00:48;9.23;;;6.97;;
9918;SDS011;4998;51.024;13.828;2022-11-28T08:03:15;12.20;;;8.00;;
9918;SDS011;4998;51.024;13.828;2022-11-28T08:05:42;8.27;;;6.70;;
9918;SDS011;4998;51.024;13.828;2022-11-28T08:08:13;9.20;;;7.30;;
9918;SDS011;4998;51.024;13.828;2022-11-28T08:10:41;8.67;;;7.13;;
9918;SDS011;4998;51.024;13.828;2022-11-28T08:13:08;9.97;;;7.67;;
9918;SDS011;4998;51.024;13.828;2022-11-28T08:15:37;9.07;;;6.40;;
9918;SDS011;4998;51.024;13.828;2022-11-28T08:18:05;10.57;;;7.70;;
9918;SDS011;4998;51.024;13.828;2022-11-28T08:20:32;8.30;;;6.97;;
9918;SDS011;4998;51.024;13.828;2022-11-28T08:22:59;10.53;;;7.80;;
9918;SDS011;4998;51.024;13.828;2022-11-28T08:25:26;8.53;;;6.83;;
9918;SDS011;4998;51.024;13.828;2022-11-28T08:27:54;9.87;;;7.37;;
9918;SDS011;4998;51.024;13.828;2022-11-28T08:30:21;9.50;;;7.60;;
9918;SDS011;4998;51.024;13.828;2022-11-28T08:32:49;8.07;;;6.83;;
9918;SDS011;4998;51.024;13.828;2022-11-28T08:35:17;10.37;;;7.27;;
9918;SDS011;4998;51.024;13.828;2022-11-28T08:37:44;10.03;;;7.17;;
9918;SDS011;4998;51.024;13.828;2022-11-28T08:40:11;11.70;;;8.13;;
9918;SDS011;4998;51.024;13.828;2022-11-28T08:42:39;9.47;;;7.63;;
9918;SDS011;4998;51.024;13.828;2022-11-28T08:45:06;8.87;;;6.90;;
9918;SDS011;4998;51.024;13.828;2022-11-28T08:47:35;9.10;;;7.43;;
9918;SDS011;4998;51.024;13.828;2022-11-28T08:50:05;9.90;;;7.30;;
9918;SDS011;4998;51.024;13.828;2022-11-28T08:52:32;11.07;;;7.93;;
9918;SDS011;4998;51.024;13.828;2022-11-28T08:54:59;9.13;;;7.57;;
9918;SDS011;4998;51.024;13.828;2022-11-28T08:57:26;8.83;;;7.00;;
9918;SDS011;4998;51.024;13.828;2022-11-28T08:59:53;11.27;;;7.90;;
9918;SDS011;4998;51.024;13.828;2022-11-28T09:02:20;9.60;;;7.57;;
9918;SDS011;4998;51.024;13.828;2022-11-28T09:04:47;8.77;;;6.70;;
9918;SDS011;4998;51.024;13.828;2022-11-28T09:07:16;8.70;;;7.60;;
9918;SDS011;4998;51.024;13.828;2022-11-28T09:09:43;9.60;;;7.77;;
9918;SDS011;4998;51.024;13.828;2022-11-28T09:12:10;14.30;;;7.47;;
9918;SDS011;4998;51.024;13.828;2022-11-28T09:14:37;10.83;;;7.77;;
9918;SDS011;4998;51.024;13.828;2022-11-28T09:17:04;11.00;;;7.47;;
9918;SDS011;4998;51.024;13.828;2022-11-28T09:19:31;11.40;;;8.07;;
9918;SDS011;4998;51.024;13.828;2022-11-28T09:21:58;12.00;;;8.03;;
9918;SDS011;4998;51.024;13.828;2022-11-28T09:24:27;10.50;;;8.10;;
9918;SDS011;4998;51.024;13.828;2022-11-28T09:26:54;11.20;;;8.00;;
9918;SDS011;4998;51.024;13.828;2022-11-28T09:29:21;10.90;;;8.53;;
9918;SDS011;4998;51.024;13.828;2022-11-28T09:31:48;12.57;;;8.50;;
9918;SDS011;4998;51.024;13.828;2022-11-28T09:34:15;10.80;;;7.67;;
9918;SDS011;4998;51.024;13.828;2022-11-28T09:36:42;9.80;;;7.80;;
9918;SDS011;4998;51.024;13.828;2022-11-28T09:39:09;12.67;;;8.37;;
9918;SDS011;4998;51.024;13.828;2022-11-28T09:41:46;10.10;;;8.37;;
9918;SDS011;4998;51.024;13.828;2022-11-28T09:44:20;10.63;;;8.30;;
9918;SDS011;4998;51.024;13.828;2022-11-28T09:46:50;10.83;;;8.40;;
9918;SDS011;4998;51.024;13.828;2022-11-28T09:49:27;9.30;;;7.93;;
9918;SDS011;4998;51.024;13.828;2022-11-28T09:51:57;10.80;;;9.00;;
9918;SDS011;4998;51.024;13.828;2022-11-28T09:54:32;10.87;;;8.47;;
9918;SDS011;4998;51.024;13.828;2022-11-28T09:57:09;10.70;;;8.87;;
9918;SDS011;4998;51.024;13.828;2022-11-28T09:59:41;11.90;;;8.33;;
9918;SDS011;4998;51.024;13.828;2022-11-28T10:02:14;11.07;;;8.43;;
9918;SDS011;4998;51.024;13.828;2022-11-28T10:04:51;12.23;;;9.00;;
9918;SDS011;4998;51.024;13.828;2022-11-28T10:07:27;10.23;;;8.87;;
9918;SDS011;4998;51.024;13.828;2022-11-28T10:10:08;11.97;;;9.30;;
9918;SDS011;4998;51.024;13.828;2022-11-28T10:12:45;11.93;;;9.27;;
9918;SDS011;4998;51.024;13.828;2022-11-28T10:18:20;10.73;;;8.77;;
9918;SDS011;4998;51.024;13.828;2022-11-28T10:21:03;10.30;;;8.67;;
9918;SDS011;4998;51.024;13.828;2022-11-28T10:23:38;12.57;;;9.67;;
9918;SDS011;4998;51.024;13.828;2022-11-28T10:26:11;14.27;;;10.10;;
9918;SDS011;4998;51.024;13.828;2022-11-28T10:28:47;13.47;;;9.83;;
9918;SDS011;4998;51.024;13.828;2022-11-28T10:31:18;12.50;;;9.20;;
9918;SDS011;4998;51.024;13.828;2022-11-28T10:33:54;10.07;;;8.57;;
9918;SDS011;4998;51.024;13.828;2022-11-28T10:36:26;10.93;;;9.07;;
9918;SDS011;4998;51.024;13.828;2022-11-28T10:38:56;12.70;;;9.70;;
9918;SDS011;4998;51.024;13.828;2022-11-28T10:41:27;10.50;;;8.97;;
9918;SDS011;4998;51.024;13.828;2022-11-28T10:44:04;11.40;;;9.03;;
9918;SDS011;4998;51.024;13.828;2022-11-28T10:46:41;11.60;;;9.50;;
9918;SDS011;4998;51.024;13.828;2022-11-28T10:49:19;12.03;;;9.10;;
9918;SDS011;4998;51.024;13.828;2022-11-28T10:51:57;13.80;;;10.67;;
9918;SDS011;4998;51.024;13.828;2022-11-28T10:54:38;12.07;;;9.87;;
9918;SDS011;4998;51.024;13.828;2022-11-28T10:57:16;11.90;;;9.43;;
9918;SDS011;4998;51.024;13.828;2022-11-28T10:59:55;12.17;;;9.40;;
9918;SDS011;4998;51.024;13.828;2022-11-28T11:02:30;13.07;;;9.83;;
9918;SDS011;4998;51.024;13.828;2022-11-28T11:05:02;12.37;;;9.60;;
9918;SDS011;4998;51.024;13.828;2022-11-28T11:07:31;11.20;;;9.17;;
9918;SDS011;4998;51.024;13.828;2022-11-28T11:09:59;13.23;;;10.30;;
9918;SDS011;4998;51.024;13.828;2022-11-28T11:12:39;12.63;;;9.73;;
9918;SDS011;4998;51.024;13.828;2022-11-28T11:15:21;12.47;;;9.90;;
9918;SDS011;4998;51.024;13.828;2022-11-28T11:17:54;11.33;;;9.50;;
9918;SDS011;4998;51.024;13.828;2022-11-28T11:20:25;11.70;;;9.70;;
9918;SDS011;4998;51.024;13.828;2022-11-28T11:22:58;14.33;;;9.57;;
9918;SDS011;4998;51.024;13.828;2022-11-28T11:25:27;11.47;;;9.83;;
9918;SDS011;4998;51.024;13.828;2022-11-28T11:27:57;12.27;;;9.20;;
9918;SDS011;4998;51.024;13.828;2022-11-28T11:32:56;11.93;;;9.47;;
9918;SDS011;4998;51.024;13.828;2022-11-28T11:35:26;14.30;;;10.00;;
9918;SDS011;4998;51.024;13.828;2022-11-28T11:38:12;13.10;;;10.20;;
9918;SDS011;4998;51.024;13.828;2022-11-28T11:40:42;14.43;;;10.93;;
9918;SDS011;4998;51.024;13.828;2022-11-28T11:43:21;13.50;;;9.73;;
9918;SDS011;4998;51.024;13.828;2022-11-28T11:46:05;14.97;;;11.20;;
9918;SDS011;4998;51.024;13.828;2022-11-28T11:48:34;13.77;;;10.20;;
9918;SDS011;4998;51.024;13.828;2022-11-28T11:51:03;11.37;;;9.37;;
9918;SDS011;4998;51.024;13.828;2022-11-28T11:53:30;14.80;;;10.20;;
9918;SDS011;4998;51.024;13.828;2022-11-28T11:55:57;13.37;;;10.40;;
9918;SDS011;4998;51.024;13.828;2022-11-28T11:58:29;13.33;;;9.80;;
9918;SDS011;4998;51.024;13.828;2022-11-28T12:01:02;12.20;;;9.67;;
9918;SDS011;4998;51.024;13.828;2022-11-28T12:03:34;14.10;;;10.37;;
9918;SDS011;4998;51.024;13.828;2022-11-28T12:06:09;14.43;;;10.33;;
9918;SDS011;4998;51.024;13.828;2022-11-28T12:08:39;14.07;;;10.03;;
9918;SDS011;4998;51.024;13.828;2022-11-28T12:11:11;12.77;;;9.60;;
9918;SDS011;4998;51.024;13.828;2022-11-28T12:13:43;13.40;;;9.90;;
9918;SDS011;4998;51.024;13.828;2022-11-28T12:16:17;12.63;;;9.47;;
9918;SDS011;4998;51.024;13.828;2022-11-28T12:18:56;12.50;;;9.63;;
9918;SDS011;4998;51.024;13.828;2022-11-28T12:21:29;14.67;;;10.20;;
9918;SDS011;4998;51.024;13.828;2022-11-28T12:24:04;13.27;;;10.13;;
9918;SDS011;4998;51.024;13.828;2022-11-28T12:26:38;13.37;;;9.67;;
9918;SDS011;4998;51.024;13.828;2022-11-28T12:29:12;16.50;;;10.00;;
9918;SDS011;4998;51.024;13.828;2022-11-28T12:32:08;14.23;;;10.20;;
9918;SDS011;4998;51.024;13.828;2022-11-28T12:34:49;11.00;;;9.40;;
9918;SDS011;4998;51.024;13.828;2022-11-28T12:37:27;15.20;;;9.77;;
9918;SDS011;4998;51.024;13.828;2022-11-28T12:40:07;11.80;;;9.23;;
9918;SDS011;4998;51.024;13.828;2022-11-28T12:45:29;12.50;;;9.17;;
9918;SDS011;4998;51.024;13.828;2022-11-28T12:48:09;13.70;;;10.50;;
9918;SDS011;4998;51.024;13.828;2022-11-28T12:50:46;11.93;;;9.10;;
9918;SDS011;4998;51.024;13.828;2022-11-28T12:56:22;14.43;;;9.10;;
9918;SDS011;4998;51.024;13.828;2022-11-28T12:58:58;11.90;;;9.10;;
9918;SDS011;4998;51.024;13.828;2022-11-28T13:01:34;14.10;;;9.50;;
9918;SDS011;4998;51.024;13.828;2022-11-28T13:04:17;12.43;;;9.70;;
9918;SDS011;4998;51.024;13.828;2022-11-28T13:06:55;11.83;;;9.30;;
9918;SDS011;4998;51.024;13.828;2022-11-28T13:09:31;13.77;;;9.80;;
9918;SDS011;4998;51.024;13.828;2022-11-28T13:12:06;13.00;;;9.67;;
9918;SDS011;4998;51.024;13.828;2022-11-28T13:14:46;14.17;;;9.60;;
9918;SDS011;4998;51.024;13.828;2022-11-28T13:17:23;11.70;;;9.20;;
9918;SDS011;4998;51.024;13.828;2022-11-28T13:20:05;13.90;;;10.00;;
9918;SDS011;4998;51.024;13.828;2022-11-28T13:22:45;12.60;;;9.13;;
9918;SDS011;4998;51.024;13.828;2022-11-28T13:25:23;11.33;;;9.20;;
9918;SDS011;4998;51.024;13.828;2022-11-28T13:27:58;12.30;;;9.33;;
9918;SDS011;4998;51.024;13.828;2022-11-28T13:30:33;14.50;;;10.10;;
9918;SDS011;4998;51.024;13.828;2022-11-28T13:33:10;11.47;;;8.90;;
9918;SDS011;4998;51.024;13.828;2022-11-28T13:35:55;12.87;;;9.20;;
9918;SDS011;4998;51.024;13.828;2022-11-28T13:38:25;11.53;;;9.00;;
9918;SDS011;4998;51.024;13.828;2022-11-28T13:41:05;10.90;;;8.80;;
9918;SDS011;4998;51.024;13.828;2022-11-28T13:43:39;13.17;;;9.33;;
9918;SDS011;4998;51.024;13.828;2022-11-28T13:46:12;13.13;;;9.70;;
9918;SDS011;4998;51.024;13.828;2022-11-28T13:48:49;13.00;;;8.90;;
9918;SDS011;4998;51.024;13.828;2022-11-28T13:51:25;11.80;;;8.87;;
9918;SDS011;4998;51.024;13.828;2022-11-28T13:57:09;10.50;;;8.00;;
9918;SDS011;4998;51.024;13.828;2022-11-28T13:59:46;10.83;;;8.87;;
9918;SDS011;4998;51.024;13.828;2022-11-28T14:02:17;11.80;;;8.70;;
9918;SDS011;4998;51.024;13.828;2022-11-28T14:04:48;13.47;;;9.60;;
9918;SDS011;4998;51.024;13.828;2022-11-28T14:07:20;11.77;;;8.63;;
9918;SDS011;4998;51.024;13.828;2022-11-28T14:09:54;10.33;;;8.40;;
9918;SDS011;4998;51.024;13.828;2022-11-28T14:12:36;13.10;;;9.37;;
9918;SDS011;4998;51.024;13.828;2022-11-28T14:15:18;12.27;;;8.60;;
9918;SDS011;4998;51.024;13.828;2022-11-28T14:18:11;12.67;;;8.67;;
9918;SDS011;4998;51.024;13.828;2022-11-28T14:20:53;11.30;;;8.73;;
9918;SDS011;4998;51.024;13.828;2022-11-28T14:23:28;11.90;;;8.63;;
9918;SDS011;4998;51.024;13.828;2022-11-28T14:26:10;11.20;;;8.13;;
9918;SDS011;4998;51.024;13.828;2022-11-28T14:28:41;12.43;;;8.27;;
9918;SDS011;4998;51.024;13.828;2022-11-28T14:31:15;11.90;;;9.13;;
9918;SDS011;4998;51.024;13.828;2022-11-28T14:33:50;9.77;;;8.37;;
9918;SDS011;4998;51.024;13.828;2022-11-28T14:36:24;11.30;;;7.97;;
9918;SDS011;4998;51.024;13.828;2022-11-28T14:39:05;11.83;;;8.70;;
9918;SDS011;4998;51.024;13.828;2022-11-28T14:45:03;12.07;;;8.30;;
9918;SDS011;4998;51.024;13.828;2022-11-28T14:48:06;11.77;;;8.67;;
9918;SDS011;4998;51.024;13.828;2022-11-28T14:50:45;12.10;;;9.10;;
9918;SDS011;4998;51.024;13.828;2022-11-28T14:56:14;16.43;;;10.37;;
9918;SDS011;4998;51.024;13.828;2022-11-28T14:58:50;14.43;;;9.70;;
9918;SDS011;4998;51.024;13.828;2022-11-28T15:01:24;13.97;;;9.73;;
9918;SDS011;4998;51.024;13.828;2022-11-28T15:04:02;17.73;;;9.63;;
9918;SDS011;4998;51.024;13.828;2022-11-28T15:06:38;12.20;;;9.10;;
9918;SDS011;4998;51.024;13.828;2022-11-28T15:09:06;16.37;;;9.97;;
9918;SDS011;4998;51.024;13.828;2022-11-28T15:11:53;15.60;;;10.20;;
9918;SDS011;4998;51.024;13.828;2022-11-28T15:14:29;16.00;;;10.57;;
9918;SDS011;4998;51.024;13.828;2022-11-28T15:16:59;14.13;;;10.30;;
9918;SDS011;4998;51.024;13.828;2022-11-28T15:19:29;15.33;;;10.60;;
9918;SDS011;4998;51.024;13.828;2022-11-28T15:21:59;14.63;;;9.90;;
9918;SDS011;4998;51.024;13.828;2022-11-28T15:24:27;13.90;;;10.60;;
9918;SDS011;4998;51.024;13.828;2022-11-28T15:26:57;16.27;;;10.90;;
9918;SDS011;4998;51.024;13.828;2022-11-28T15:29:51;15.23;;;10.67;;
9918;SDS011;4998;51.024;13.828;2022-11-28T15:32:19;16.00;;;10.97;;
9918;SDS011;4998;51.024;13.828;2022-11-28T15:34:51;13.43;;;9.80;;
9918;SDS011;4998;51.024;13.828;2022-11-28T15:37:22;16.20;;;10.90;;
9918;SDS011;4998;51.024;13.828;2022-11-28T15:39:53;14.30;;;10.37;;